createdAt,value
2022-07-26T00:01:39.489Z,1.00
2022-07-26T00:04:07.672Z,1.30
2022-07-26T00:06:34.618Z,0.88
2022-07-26T00:09:01.650Z,0.70
2022-07-26T00:11:30.322Z,0.82
2022-07-26T00:13:57.196Z,1.15
2022-07-26T00:16:24.243Z,0.80
2022-07-26T00:18:51.181Z,0.88
2022-07-26T00:21:18.067Z,0.80
2022-07-26T00:23:45.253Z,1.00
2022-07-26T00:26:12.211Z,0.77
2022-07-26T00:28:39.253Z,1.00
2022-07-26T00:31:06.230Z,1.33
2022-07-26T00:33:33.875Z,1.10
2022-07-26T00:36:01.028Z,1.50
2022-07-26T00:38:27.974Z,0.88
2022-07-26T00:40:54.985Z,1.13
2022-07-26T00:43:21.933Z,1.10
2022-07-26T00:45:50.264Z,1.00
2022-07-26T00:48:18.684Z,1.20
2022-07-26T00:50:46.345Z,1.00
2022-07-26T00:53:13.307Z,1.20
2022-07-26T00:55:40.333Z,0.95
2022-07-26T00:58:07.286Z,1.40
2022-07-26T01:00:34.283Z,1.00
2022-07-26T01:03:01.460Z,1.20
2022-07-26T01:05:29.185Z,0.80
2022-07-26T01:07:57.411Z,1.35
2022-07-26T01:10:24.535Z,1.13
2022-07-26T01:12:51.784Z,1.13
2022-07-26T01:15:18.728Z,1.15
2022-07-26T01:17:47.279Z,1.55
2022-07-26T01:20:14.982Z,1.58
2022-07-26T01:22:42.182Z,1.50
2022-07-26T01:25:09.924Z,1.45
2022-07-26T01:27:40.461Z,1.40
2022-07-26T01:30:11.754Z,1.75
2022-07-26T01:32:38.840Z,1.58
2022-07-26T01:35:07.578Z,1.75
2022-07-26T01:37:34.681Z,1.88
2022-07-26T01:40:02.209Z,1.85
2022-07-26T01:42:29.192Z,1.90
2022-07-26T01:44:56.084Z,1.65
2022-07-26T01:47:23.142Z,2.03
2022-07-26T01:49:50.283Z,1.98
2022-07-26T01:52:18.377Z,2.00
2022-07-26T01:54:45.399Z,2.13
2022-07-26T01:57:12.304Z,2.10
2022-07-26T01:59:39.313Z,1.92
2022-07-26T02:02:06.328Z,1.70
2022-07-26T02:04:51.553Z,2.00
2022-07-26T02:07:18.535Z,2.40
2022-07-26T02:09:45.657Z,1.83
2022-07-26T02:12:14.054Z,2.28
2022-07-26T02:14:41.007Z,2.03
2022-07-26T02:17:08.368Z,1.80
2022-07-26T02:19:35.441Z,2.25
2022-07-26T02:22:02.418Z,2.00
2022-07-26T02:24:29.920Z,1.67
2022-07-26T02:26:59.641Z,1.70
2022-07-26T02:29:27.386Z,2.10
2022-07-26T02:31:56.143Z,1.40
2022-07-26T02:34:24.182Z,1.60
2022-07-26T02:36:51.164Z,1.52
2022-07-26T02:39:18.665Z,1.60
2022-07-26T02:41:45.695Z,1.67
2022-07-26T02:44:12.708Z,1.40
2022-07-26T02:46:39.689Z,1.80
2022-07-26T02:49:06.781Z,1.85
2022-07-26T02:51:33.685Z,1.60
2022-07-26T02:54:00.570Z,1.65
2022-07-26T02:56:27.979Z,1.63
2022-07-26T02:58:54.961Z,1.42
2022-07-26T03:01:22.353Z,1.90
2022-07-26T03:03:51.133Z,1.60
2022-07-26T03:06:19.497Z,1.33
2022-07-26T03:08:47.567Z,2.15
2022-07-26T03:11:14.666Z,1.83
2022-07-26T03:13:41.607Z,2.17
2022-07-26T03:16:08.857Z,1.88
2022-07-26T03:18:35.948Z,1.85
2022-07-26T03:21:03.576Z,1.90
2022-07-26T03:23:34.423Z,1.90
2022-07-26T03:26:02.967Z,1.77
2022-07-26T03:28:32.199Z,1.73
2022-07-26T03:30:59.464Z,2.03
2022-07-26T03:33:26.565Z,1.70
2022-07-26T03:35:53.463Z,2.13
2022-07-26T03:38:22.079Z,2.20
2022-07-26T03:40:49.132Z,2.08
2022-07-26T03:43:18.978Z,2.13
2022-07-26T03:45:48.105Z,1.95
2022-07-26T03:48:15.096Z,1.70
2022-07-26T03:50:42.702Z,2.25
2022-07-26T03:53:09.611Z,2.13
2022-07-26T03:55:55.114Z,1.92
2022-07-26T03:58:22.002Z,1.63
2022-07-26T04:00:49.042Z,2.10
2022-07-26T04:03:15.922Z,1.90
2022-07-26T04:05:49.024Z,2.08
2022-07-26T04:08:16.818Z,2.28
2022-07-26T04:10:51.973Z,2.22
2022-07-26T04:13:25.814Z,1.85
2022-07-26T04:16:09.702Z,2.38
2022-07-26T04:18:36.879Z,2.05
2022-07-26T04:21:08.733Z,2.45
2022-07-26T04:23:35.814Z,1.83
2022-07-26T04:26:02.835Z,2.22
2022-07-26T04:28:30.371Z,2.60
2022-07-26T04:31:00.526Z,2.45
2022-07-26T04:33:39.930Z,2.15
2022-07-26T04:36:08.152Z,2.35
2022-07-26T04:38:37.472Z,2.10
2022-07-26T04:41:16.795Z,2.20
2022-07-26T04:43:44.330Z,1.50
2022-07-26T04:46:11.278Z,1.60
2022-07-26T04:48:38.700Z,2.22
2022-07-26T04:51:05.843Z,2.00
2022-07-26T04:53:32.753Z,1.85
2022-07-26T04:55:59.604Z,2.35
2022-07-26T04:58:26.636Z,2.33
2022-07-26T05:01:10.409Z,2.47
2022-07-26T05:03:40.754Z,2.22
2022-07-26T05:06:07.781Z,2.20
2022-07-26T05:08:34.861Z,2.15
2022-07-26T05:11:01.744Z,2.00
2022-07-26T05:13:30.603Z,2.47
2022-07-26T05:15:59.518Z,2.15
2022-07-26T05:18:27.578Z,2.40
2022-07-26T05:20:56.770Z,2.97
2022-07-26T05:23:23.667Z,3.45
2022-07-26T05:25:50.699Z,2.50
2022-07-26T05:28:17.536Z,2.95
2022-07-26T05:30:44.829Z,2.35
2022-07-26T05:33:16.365Z,2.20
2022-07-26T05:35:43.866Z,2.45
2022-07-26T05:38:11.272Z,2.60
2022-07-26T05:40:38.235Z,2.85
2022-07-26T05:43:05.099Z,2.40
2022-07-26T05:45:32.449Z,2.38
2022-07-26T05:48:09.407Z,2.60
2022-07-26T05:50:40.395Z,2.45
2022-07-26T05:53:07.238Z,2.40
2022-07-26T05:55:34.376Z,2.47
2022-07-26T05:58:01.265Z,2.38
2022-07-26T06:00:31.191Z,2.92
2022-07-26T06:02:58.027Z,2.67
2022-07-26T06:05:24.864Z,2.65
2022-07-26T06:07:51.739Z,2.20
2022-07-26T06:10:31.599Z,2.28
2022-07-26T06:15:46.755Z,2.60
2022-07-26T06:18:14.327Z,2.55
2022-07-26T06:20:45.033Z,2.42
2022-07-26T06:23:15.027Z,2.55
2022-07-26T06:25:43.999Z,2.10
2022-07-26T06:28:14.412Z,2.22
2022-07-26T06:30:45.254Z,2.60
2022-07-26T06:33:12.144Z,2.50
2022-07-26T06:35:39.219Z,2.30
2022-07-26T06:38:07.142Z,2.65
2022-07-26T06:40:35.273Z,3.28
2022-07-26T06:43:04.710Z,2.90
2022-07-26T06:45:33.847Z,1.98
2022-07-26T06:48:01.041Z,3.00
2022-07-26T06:50:28.109Z,2.78
2022-07-26T06:52:55.079Z,2.55
2022-07-26T06:55:22.165Z,2.40
2022-07-26T06:57:50.023Z,2.65
2022-07-26T07:00:18.422Z,2.67
2022-07-26T07:02:45.533Z,2.50
2022-07-26T07:05:13.044Z,2.58
2022-07-26T07:07:42.109Z,3.08
2022-07-26T07:10:10.724Z,2.55
2022-07-26T07:12:40.544Z,2.45
2022-07-26T07:15:08.297Z,2.50
2022-07-26T07:17:35.290Z,2.83
2022-07-26T07:20:04.697Z,2.67
2022-07-26T07:22:32.343Z,2.35
2022-07-26T07:25:01.312Z,2.72
2022-07-26T07:27:29.852Z,2.47
2022-07-26T07:29:56.655Z,2.40
2022-07-26T07:32:24.603Z,2.42
2022-07-26T07:34:51.720Z,2.60
2022-07-26T07:37:20.889Z,2.42
2022-07-26T07:39:50.389Z,2.58
2022-07-26T07:42:19.746Z,2.30
2022-07-26T07:44:47.692Z,2.22
2022-07-26T07:47:14.870Z,3.15
2022-07-26T07:49:42.006Z,2.40
2022-07-26T07:52:09.012Z,2.42
2022-07-26T07:54:35.852Z,2.42
2022-07-26T07:57:02.712Z,2.78
2022-07-26T07:59:29.715Z,2.58
2022-07-26T08:01:56.604Z,2.20
2022-07-26T08:04:23.862Z,2.13
2022-07-26T08:06:51.597Z,2.38
2022-07-26T08:09:19.816Z,2.20
2022-07-26T08:11:50.679Z,2.20
2022-07-26T08:14:19.219Z,2.90
2022-07-26T08:16:46.728Z,1.95
2022-07-26T08:19:15.423Z,1.92
2022-07-26T08:21:42.989Z,2.47
2022-07-26T08:24:10.789Z,2.33
2022-07-26T08:26:38.360Z,1.73
2022-07-26T08:29:05.615Z,1.58
2022-07-26T08:31:32.657Z,1.60
2022-07-26T08:33:59.819Z,2.08
2022-07-26T08:36:32.407Z,2.25
2022-07-26T08:39:01.295Z,2.00
2022-07-26T08:41:28.840Z,2.22
2022-07-26T08:44:04.046Z,1.77
2022-07-26T08:46:34.125Z,1.98
2022-07-26T08:49:01.084Z,2.17
2022-07-26T08:51:28.022Z,2.00
2022-07-26T08:54:04.089Z,2.30
2022-07-26T08:56:37.241Z,2.35
2022-07-26T08:59:20.800Z,3.42
2022-07-26T09:02:01.966Z,2.83
2022-07-26T09:04:41.674Z,2.40
2022-07-26T09:07:18.579Z,2.38
2022-07-26T09:10:04.164Z,2.58
2022-07-26T09:12:32.534Z,2.53
2022-07-26T09:15:01.744Z,3.15
2022-07-26T09:17:53.725Z,3.03
2022-07-26T09:20:29.973Z,3.20
2022-07-26T09:23:08.027Z,3.33
2022-07-26T09:25:40.452Z,3.53
2022-07-26T09:28:29.887Z,3.80
2022-07-26T09:31:00.695Z,4.30
2022-07-26T09:33:45.214Z,3.70
2022-07-26T09:36:13.707Z,3.88
2022-07-26T09:38:41.063Z,3.63
2022-07-26T09:41:24.245Z,3.55
2022-07-26T09:43:53.962Z,3.80
2022-07-26T09:46:26.410Z,3.65
2022-07-26T09:49:12.489Z,3.65
2022-07-26T09:51:47.919Z,3.20
2022-07-26T09:54:29.795Z,3.38
2022-07-26T09:56:57.845Z,3.10
2022-07-26T09:59:27.309Z,2.13
2022-07-26T10:01:56.520Z,1.60
2022-07-26T10:04:25.252Z,1.23
2022-07-26T10:06:52.989Z,0.70
2022-07-26T10:09:23.174Z,0.60
2022-07-26T10:12:00.576Z,0.80
2022-07-26T10:14:33.370Z,0.70
2022-07-26T10:17:01.889Z,0.82
2022-07-26T10:19:43.579Z,0.90
2022-07-26T10:22:45.813Z,1.10
2022-07-26T10:25:19.040Z,0.80
2022-07-26T10:27:47.678Z,0.75
2022-07-26T10:30:21.725Z,0.55
2022-07-26T10:32:51.422Z,0.67
2022-07-26T10:35:40.697Z,0.60
2022-07-26T10:38:35.119Z,0.47
2022-07-26T10:41:07.836Z,0.77
2022-07-26T10:43:42.905Z,0.75
2022-07-26T10:46:16.236Z,0.80
2022-07-26T10:49:04.542Z,0.68
2022-07-26T10:51:40.669Z,0.40
2022-07-26T10:54:12.032Z,0.40
2022-07-26T10:56:39.968Z,0.63
2022-07-26T10:59:07.363Z,0.20
2022-07-26T11:01:38.685Z,0.22
2022-07-26T11:04:19.749Z,0.30
2022-07-26T11:06:47.094Z,0.25
2022-07-26T11:09:14.426Z,0.20
2022-07-26T11:11:46.394Z,0.30
2022-07-26T11:14:17.078Z,0.30
2022-07-26T11:16:48.185Z,0.10
2022-07-26T11:19:18.020Z,0.10
2022-07-26T11:21:52.566Z,0.10
2022-07-26T11:24:21.846Z,0.20
2022-07-26T11:26:49.022Z,0.10
2022-07-26T11:29:37.958Z,0.10
2022-07-26T11:32:18.929Z,0.30
2022-07-26T11:34:46.960Z,0.20
2022-07-26T11:37:14.393Z,0.20
2022-07-26T11:39:41.477Z,0.30
2022-07-26T11:42:12.993Z,0.15
2022-07-26T11:44:45.372Z,0.20
2022-07-26T11:47:25.371Z,0.28
2022-07-26T11:50:13.894Z,0.30
2022-07-26T11:52:41.192Z,0.20
2022-07-26T11:55:09.011Z,0.25
2022-07-26T11:57:36.077Z,0.30
2022-07-26T12:00:05.028Z,0.30
2022-07-26T12:02:41.410Z,0.30
2022-07-26T12:05:20.046Z,0.32
2022-07-26T12:08:04.831Z,0.30
2022-07-26T12:10:32.072Z,0.28
2022-07-26T12:13:14.524Z,0.30
2022-07-26T12:15:53.231Z,0.30
2022-07-26T12:18:26.384Z,0.22
2022-07-26T12:21:12.436Z,0.30
2022-07-26T12:23:45.077Z,0.30
2022-07-26T12:26:24.904Z,0.30
2022-07-26T12:28:52.994Z,0.20
2022-07-26T12:31:31.742Z,0.30
2022-07-26T12:33:59.031Z,0.10
2022-07-26T12:36:29.672Z,0.30
2022-07-26T12:38:59.376Z,0.20
2022-07-26T12:41:38.368Z,0.30
2022-07-26T12:44:08.550Z,0.30
2022-07-26T12:46:36.745Z,0.30
2022-07-26T12:49:05.382Z,0.30
2022-07-26T12:51:33.211Z,0.30
2022-07-26T12:54:00.214Z,0.20
2022-07-26T12:56:27.342Z,0.20
2022-07-26T12:59:00.636Z,0.50
2022-07-26T13:02:18.351Z,0.32
2022-07-26T13:04:46.028Z,0.25
2022-07-26T13:07:14.569Z,0.32
2022-07-26T13:09:44.059Z,0.17
2022-07-26T13:12:12.936Z,0.60
2022-07-26T13:14:41.266Z,0.50
2022-07-26T13:17:10.401Z,0.40
2022-07-26T13:19:38.403Z,0.30
2022-07-26T13:22:07.555Z,0.40
2022-07-26T13:24:38.853Z,0.30
2022-07-26T13:27:08.107Z,0.30
2022-07-26T13:29:36.290Z,0.50
2022-07-26T13:32:05.048Z,0.40
2022-07-26T13:34:35.076Z,0.43
2022-07-26T13:37:02.291Z,0.40
2022-07-26T13:39:35.371Z,0.38
2022-07-26T13:42:02.233Z,0.75
2022-07-26T13:44:29.064Z,0.50
2022-07-26T13:46:56.106Z,0.40
2022-07-26T13:49:23.162Z,0.50
2022-07-26T13:51:59.053Z,0.40
2022-07-26T13:54:32.876Z,0.35
2022-07-26T13:57:02.964Z,0.50
2022-07-26T13:59:30.116Z,0.43
2022-07-26T14:01:57.146Z,0.22
2022-07-26T14:04:24.453Z,0.57
2022-07-26T14:06:52.131Z,0.40
2022-07-26T14:09:20.910Z,0.35
2022-07-26T14:11:49.032Z,0.32
2022-07-26T14:14:16.386Z,0.30
2022-07-26T14:16:43.686Z,0.28
2022-07-26T14:19:15.085Z,0.28
2022-07-26T14:21:47.025Z,0.30
2022-07-26T14:24:25.866Z,0.10
2022-07-26T14:26:56.854Z,0.20
2022-07-26T14:29:27.165Z,0.20
2022-07-26T14:31:54.104Z,0.30
2022-07-26T14:34:21.028Z,0.10
2022-07-26T14:36:47.888Z,0.13
2022-07-26T14:39:14.732Z,0.10
2022-07-26T14:41:41.647Z,0.38
2022-07-26T14:44:08.942Z,0.08
2022-07-26T14:46:36.147Z,0.30
2022-07-26T14:49:03.163Z,0.20
2022-07-26T14:51:30.273Z,0.50
2022-07-26T14:53:57.135Z,0.30
2022-07-26T14:56:24.008Z,0.30
2022-07-26T14:58:50.929Z,0.30
2022-07-26T15:01:17.963Z,0.45
2022-07-26T15:03:44.954Z,0.32
2022-07-26T15:06:11.909Z,0.40
2022-07-26T15:08:38.772Z,0.45
2022-07-26T15:11:05.923Z,0.70
2022-07-26T15:13:33.686Z,0.65
2022-07-26T15:16:01.009Z,0.60
2022-07-26T15:18:28.068Z,0.65
2022-07-26T15:20:55.046Z,0.30
2022-07-26T15:23:21.923Z,0.50
2022-07-26T15:25:48.900Z,0.50
2022-07-26T15:28:16.455Z,0.60
2022-07-26T15:30:43.629Z,0.47
2022-07-26T15:33:11.005Z,0.40
2022-07-26T15:35:40.667Z,0.60
2022-07-26T15:38:07.824Z,0.60
2022-07-26T15:40:35.125Z,0.60
2022-07-26T15:43:02.901Z,0.40
2022-07-26T15:45:30.256Z,0.65
2022-07-26T15:48:13.458Z,0.45
2022-07-26T15:50:43.976Z,0.47
2022-07-26T15:53:14.720Z,0.50
2022-07-26T15:55:42.019Z,0.80
2022-07-26T15:58:10.255Z,0.70
2022-07-26T16:00:37.350Z,1.00
2022-07-26T16:03:04.539Z,0.70
2022-07-26T16:05:33.178Z,0.60
2022-07-26T16:08:07.159Z,0.70
2022-07-26T16:10:34.270Z,0.77
2022-07-26T16:13:08.407Z,0.60
2022-07-26T16:15:35.430Z,1.05
2022-07-26T16:18:06.494Z,0.90
2022-07-26T16:20:59.409Z,0.75
2022-07-26T16:23:26.605Z,0.77
2022-07-26T16:25:53.796Z,0.85
2022-07-26T16:28:21.220Z,0.82
2022-07-26T16:30:51.698Z,0.60
2022-07-26T16:33:19.210Z,0.82
2022-07-26T16:35:46.160Z,1.25
2022-07-26T16:38:14.081Z,0.80
2022-07-26T16:40:41.592Z,0.80
2022-07-26T16:43:08.984Z,0.70
2022-07-26T16:45:39.195Z,0.75
2022-07-26T16:48:06.866Z,0.80
2022-07-26T16:50:34.489Z,1.05
2022-07-26T16:53:01.943Z,0.68
2022-07-26T16:55:29.023Z,0.80
2022-07-26T16:57:56.229Z,0.93
2022-07-26T17:00:23.816Z,0.90
2022-07-26T17:02:51.280Z,0.68
2022-07-26T17:05:18.289Z,1.00
2022-07-26T17:07:45.603Z,0.57
2022-07-26T17:10:12.894Z,0.93
2022-07-26T17:12:40.993Z,0.77
2022-07-26T17:15:10.394Z,1.15
2022-07-26T17:17:37.822Z,0.80
2022-07-26T17:20:08.332Z,0.93
2022-07-26T17:22:35.639Z,1.20
2022-07-26T17:25:03.190Z,1.08
2022-07-26T17:27:31.102Z,1.20
2022-07-26T17:30:03.048Z,1.15
2022-07-26T17:35:01.114Z,0.63
2022-07-26T17:37:29.399Z,0.90
2022-07-26T17:39:57.959Z,1.00
2022-07-26T17:42:25.303Z,1.00
2022-07-26T17:44:52.697Z,1.10
2022-07-26T17:47:29.454Z,0.90
2022-07-26T17:52:53.339Z,0.90
2022-07-26T17:55:21.291Z,1.13
2022-07-26T17:57:50.178Z,1.10
2022-07-26T18:00:20.400Z,0.85
2022-07-26T18:02:48.275Z,1.00
2022-07-26T18:05:15.799Z,0.90
2022-07-26T18:07:42.757Z,1.08
2022-07-26T18:10:11.109Z,0.82
2022-07-26T18:12:38.259Z,0.90
2022-07-26T18:15:07.537Z,1.02
2022-07-26T18:17:34.564Z,1.00
2022-07-26T18:20:01.440Z,0.80
2022-07-26T18:22:28.459Z,0.90
2022-07-26T18:24:55.346Z,1.35
2022-07-26T18:27:23.367Z,1.10
2022-07-26T18:29:50.316Z,1.10
2022-07-26T18:32:19.272Z,1.00
2022-07-26T18:34:52.331Z,1.00
2022-07-26T18:37:21.136Z,0.85
2022-07-26T18:39:54.061Z,0.90
2022-07-26T18:42:24.164Z,1.30
2022-07-26T18:44:51.123Z,0.90
2022-07-26T18:47:17.959Z,1.13
2022-07-26T18:49:44.817Z,1.10
2022-07-26T18:52:11.856Z,1.27
2022-07-26T18:54:38.754Z,1.08
2022-07-26T18:57:05.746Z,0.90
2022-07-26T18:59:32.719Z,1.20
2022-07-26T19:02:00.302Z,1.13
2022-07-26T19:04:28.305Z,0.98
2022-07-26T19:06:56.419Z,1.13
2022-07-26T19:09:23.316Z,1.20
2022-07-26T19:11:50.278Z,0.60
2022-07-26T19:14:17.216Z,1.38
2022-07-26T19:16:44.473Z,1.10
2022-07-26T19:19:11.647Z,1.00
2022-07-26T19:21:40.788Z,0.90
2022-07-26T19:24:07.730Z,0.90
2022-07-26T19:26:35.706Z,1.42
2022-07-26T19:29:03.058Z,0.77
2022-07-26T19:31:30.221Z,0.95
2022-07-26T19:33:57.195Z,0.75
2022-07-26T19:36:26.112Z,0.93
2022-07-26T19:38:56.494Z,0.80
2022-07-26T19:41:23.767Z,0.80
2022-07-26T19:43:50.693Z,0.70
2022-07-26T19:46:17.649Z,0.95
2022-07-26T19:48:44.877Z,0.70
2022-07-26T19:51:11.815Z,0.90
2022-07-26T19:53:38.689Z,1.00
2022-07-26T19:56:06.247Z,0.73
2022-07-26T19:58:33.221Z,0.90
2022-07-26T20:01:00.227Z,0.75
2022-07-26T20:03:27.129Z,0.90
2022-07-26T20:05:55.619Z,1.08
2022-07-26T20:08:23.078Z,0.90
2022-07-26T20:10:50.675Z,0.98
2022-07-26T20:13:18.050Z,0.80
2022-07-26T20:15:46.974Z,1.25
2022-07-26T20:18:14.106Z,1.00
2022-07-26T20:20:41.050Z,1.00
2022-07-26T20:23:10.840Z,0.70
2022-07-26T20:25:37.869Z,0.80
2022-07-26T20:28:05.094Z,0.80
2022-07-26T20:30:32.064Z,1.15
2022-07-26T20:33:02.078Z,1.15
2022-07-26T20:35:29.168Z,0.82
2022-07-26T20:37:56.247Z,0.70
2022-07-26T20:40:23.648Z,0.93
2022-07-26T20:42:51.659Z,1.17
2022-07-26T20:45:18.643Z,0.90
2022-07-26T20:47:45.556Z,0.80
2022-07-26T20:50:13.150Z,0.80
2022-07-26T20:52:41.415Z,0.70
2022-07-26T20:55:09.297Z,0.47
2022-07-26T20:57:36.961Z,0.80
2022-07-26T21:00:11.397Z,0.80
2022-07-26T21:02:38.722Z,0.88
2022-07-26T21:05:07.027Z,1.05
2022-07-26T21:07:55.960Z,0.90
2022-07-26T21:10:21.220Z,0.90
2022-07-26T21:12:49.206Z,0.73
2022-07-26T21:15:18.892Z,0.82
2022-07-26T21:17:45.939Z,0.70
2022-07-26T21:20:13.290Z,1.02
2022-07-26T21:22:40.180Z,0.90
2022-07-26T21:25:07.850Z,1.08
2022-07-26T21:27:35.953Z,0.93
2022-07-26T21:30:05.405Z,0.95
2022-07-26T21:32:32.719Z,0.80
2022-07-26T21:34:59.826Z,0.70
2022-07-26T21:37:26.874Z,0.77
2022-07-26T21:39:53.847Z,0.75
2022-07-26T21:42:20.698Z,0.60
2022-07-26T21:44:47.930Z,0.73
2022-07-26T21:47:14.868Z,0.90
2022-07-26T21:49:41.846Z,0.90
2022-07-26T21:52:09.015Z,0.60
2022-07-26T21:54:35.974Z,0.65
2022-07-26T21:57:02.941Z,0.95
2022-07-26T21:59:29.826Z,0.52
2022-07-26T22:01:57.135Z,0.68
2022-07-26T22:04:24.323Z,0.95
2022-07-26T22:06:51.337Z,0.63
2022-07-26T22:09:18.267Z,0.73
2022-07-26T22:11:45.184Z,0.93
2022-07-26T22:14:12.114Z,0.80
2022-07-26T22:16:39.395Z,0.93
2022-07-26T22:19:06.659Z,0.85
2022-07-26T22:21:33.674Z,0.85
2022-07-26T22:24:00.623Z,1.00
2022-07-26T22:26:31.063Z,0.65
2022-07-26T22:28:59.510Z,0.98
2022-07-26T22:31:26.863Z,0.80
2022-07-26T22:33:53.786Z,0.80
2022-07-26T22:36:21.584Z,0.63
2022-07-26T22:38:48.783Z,0.60
2022-07-26T22:41:15.629Z,0.60
2022-07-26T22:43:43.505Z,0.93
2022-07-26T22:46:10.456Z,0.60
2022-07-26T22:48:38.923Z,0.98
2022-07-26T22:51:07.195Z,0.82
2022-07-26T22:53:34.039Z,0.80
2022-07-26T22:56:00.961Z,0.90
2022-07-26T22:58:27.827Z,0.82
2022-07-26T23:00:54.929Z,0.82
2022-07-26T23:03:22.053Z,0.70
2022-07-26T23:05:50.586Z,0.70
2022-07-26T23:11:06.947Z,0.82
2022-07-26T23:13:34.771Z,1.05
2022-07-26T23:16:02.259Z,0.80
2022-07-26T23:18:31.503Z,0.90
2022-07-26T23:20:58.482Z,0.70
2022-07-26T23:23:29.652Z,0.93
2022-07-26T23:25:59.004Z,0.82
2022-07-26T23:28:37.473Z,0.52
2022-07-26T23:31:12.695Z,0.70
2022-07-26T23:33:52.258Z,0.90
2022-07-26T23:36:26.533Z,0.70
2022-07-26T23:38:56.418Z,1.00
2022-07-26T23:41:24.897Z,0.70
2022-07-26T23:43:53.252Z,0.60
2022-07-26T23:46:20.651Z,0.90
2022-07-26T23:48:48.017Z,0.75
2022-07-26T23:51:15.498Z,0.70
2022-07-26T23:53:42.861Z,0.57
2022-07-26T23:56:10.018Z,0.73
2022-07-26T23:58:37.606Z,0.95
